createdAt,value
2022-12-31T00:00:08.796Z,0.20
2022-12-31T00:02:36.181Z,0.38
2022-12-31T00:05:03.232Z,0.40
2022-12-31T00:07:29.856Z,0.30
2022-12-31T00:09:56.455Z,0.20
2022-12-31T00:12:23.116Z,0.25
2022-12-31T00:14:49.924Z,0.30
2022-12-31T00:17:16.611Z,0.20
2022-12-31T00:19:43.185Z,0.40
2022-12-31T00:22:10.012Z,0.30
2022-12-31T00:24:36.642Z,0.30
2022-12-31T00:27:03.395Z,0.50
2022-12-31T00:29:30.013Z,0.20
2022-12-31T00:31:56.671Z,0.30
2022-12-31T00:34:23.449Z,0.30
2022-12-31T00:36:50.070Z,0.40
2022-12-31T00:39:16.688Z,0.40
2022-12-31T00:41:44.097Z,0.22
2022-12-31T00:44:13.778Z,0.28
2022-12-31T00:49:06.714Z,0.40
2022-12-31T00:51:33.402Z,0.20
2022-12-31T00:54:00.419Z,0.30
2022-12-31T00:56:29.578Z,0.22
2022-12-31T00:58:56.769Z,0.30
2022-12-31T01:01:26.514Z,0.20
2022-12-31T01:03:57.638Z,0.40
2022-12-31T01:06:24.766Z,0.20
2022-12-31T01:08:53.087Z,0.30
2022-12-31T01:11:20.377Z,0.22
2022-12-31T01:13:59.997Z,0.22
2022-12-31T01:16:43.521Z,0.22
2022-12-31T01:19:17.655Z,0.30
2022-12-31T01:21:45.857Z,0.30
2022-12-31T01:24:13.206Z,0.20
2022-12-31T01:26:40.550Z,0.20
2022-12-31T01:29:08.135Z,0.25
2022-12-31T01:31:36.106Z,0.20
2022-12-31T01:34:03.390Z,0.30
2022-12-31T01:36:32.277Z,0.20
2022-12-31T01:39:00.763Z,0.20
2022-12-31T01:41:33.419Z,0.20
2022-12-31T01:44:21.788Z,0.30
2022-12-31T01:46:51.820Z,0.40
2022-12-31T01:49:18.358Z,0.20
2022-12-31T01:51:49.715Z,0.30
2022-12-31T01:54:20.121Z,0.20
2022-12-31T01:56:49.144Z,0.20
2022-12-31T01:59:17.687Z,0.30
2022-12-31T02:01:46.661Z,0.20
2022-12-31T02:04:15.276Z,0.30
2022-12-31T02:06:47.970Z,0.20
2022-12-31T02:09:15.415Z,0.30
2022-12-31T02:11:42.041Z,0.20
2022-12-31T02:14:16.035Z,0.20
2022-12-31T02:17:13.465Z,0.20
2022-12-31T02:20:11.037Z,0.22
2022-12-31T02:23:18.436Z,0.20
2022-12-31T02:26:04.997Z,0.20
2022-12-31T02:28:50.800Z,0.25
2022-12-31T02:31:24.116Z,0.20
2022-12-31T02:34:16.228Z,0.30
2022-12-31T02:36:46.649Z,0.20
2022-12-31T02:39:14.443Z,0.20
2022-12-31T02:41:49.963Z,0.30
2022-12-31T02:44:28.530Z,0.22
2022-12-31T02:47:04.409Z,0.20
2022-12-31T02:49:49.329Z,0.30
2022-12-31T02:52:40.758Z,0.10
2022-12-31T02:55:13.760Z,0.20
2022-12-31T02:57:47.364Z,0.20
2022-12-31T03:00:35.082Z,0.17
2022-12-31T03:03:03.503Z,0.30
2022-12-31T03:05:34.249Z,0.30
2022-12-31T03:08:00.908Z,0.30
2022-12-31T03:10:27.676Z,0.28
2022-12-31T03:12:54.421Z,0.20
2022-12-31T03:15:22.315Z,0.40
2022-12-31T03:18:00.912Z,0.30
2022-12-31T03:20:53.470Z,0.20
2022-12-31T03:23:27.354Z,0.20
2022-12-31T03:25:56.341Z,0.20
2022-12-31T03:28:29.061Z,0.20
2022-12-31T03:30:59.574Z,0.22
2022-12-31T03:33:30.205Z,0.20
2022-12-31T03:35:56.881Z,0.22
2022-12-31T03:38:23.885Z,0.10
2022-12-31T03:40:52.901Z,0.25
2022-12-31T03:43:20.138Z,0.20
2022-12-31T03:45:51.658Z,0.13
2022-12-31T03:48:19.594Z,0.20
2022-12-31T03:50:46.587Z,0.30
2022-12-31T03:53:13.432Z,0.20
2022-12-31T03:55:40.119Z,0.17
2022-12-31T03:58:06.735Z,0.30
2022-12-31T04:00:33.325Z,0.20
2022-12-31T04:03:00.063Z,0.13
2022-12-31T04:05:26.764Z,0.25
2022-12-31T04:07:55.517Z,0.20
2022-12-31T04:10:22.240Z,0.20
2022-12-31T04:12:48.837Z,0.35
2022-12-31T04:15:19.163Z,0.20
2022-12-31T04:17:46.777Z,0.20
2022-12-31T04:20:14.149Z,0.30
2022-12-31T04:22:40.888Z,0.20
2022-12-31T04:25:11.641Z,0.30
2022-12-31T04:27:40.286Z,0.30
2022-12-31T04:30:07.638Z,0.10
2022-12-31T04:32:34.326Z,0.20
2022-12-31T04:35:00.971Z,0.20
2022-12-31T04:37:27.571Z,0.20
2022-12-31T04:39:54.180Z,0.28
2022-12-31T04:42:20.804Z,0.20
2022-12-31T04:44:47.397Z,0.40
2022-12-31T04:47:18.694Z,0.20
2022-12-31T04:49:48.379Z,0.15
2022-12-31T04:52:14.956Z,0.17
2022-12-31T04:54:41.531Z,0.25
2022-12-31T04:57:08.102Z,0.17
2022-12-31T04:59:34.744Z,0.20
2022-12-31T05:02:01.593Z,0.20
2022-12-31T05:04:28.560Z,0.17
2022-12-31T05:06:55.156Z,0.30
2022-12-31T05:09:23.954Z,0.20
2022-12-31T05:11:50.613Z,0.22
2022-12-31T05:14:17.283Z,0.20
2022-12-31T05:16:43.940Z,0.20
2022-12-31T05:19:10.640Z,0.20
2022-12-31T05:21:37.266Z,0.10
2022-12-31T05:24:04.056Z,0.10
2022-12-31T05:26:30.667Z,0.15
2022-12-31T05:28:57.267Z,0.15
2022-12-31T05:31:23.877Z,0.20
2022-12-31T05:33:50.446Z,0.10
2022-12-31T05:36:17.047Z,0.20
2022-12-31T05:38:43.646Z,0.10
2022-12-31T05:41:11.150Z,0.25
2022-12-31T05:43:37.716Z,0.13
2022-12-31T05:46:05.469Z,0.30
2022-12-31T05:48:32.614Z,0.10
2022-12-31T05:50:59.395Z,0.17
2022-12-31T05:53:26.009Z,0.20
2022-12-31T05:55:52.732Z,0.20
2022-12-31T05:58:19.345Z,0.20
2022-12-31T06:00:46.141Z,0.20
2022-12-31T06:03:13.211Z,0.20
2022-12-31T06:05:43.928Z,0.20
2022-12-31T06:08:12.051Z,0.20
2022-12-31T06:10:38.959Z,0.20
2022-12-31T06:13:05.928Z,0.25
2022-12-31T06:15:32.646Z,0.20
2022-12-31T06:17:59.469Z,0.20
2022-12-31T06:20:26.126Z,0.20
2022-12-31T06:22:52.761Z,0.10
2022-12-31T06:25:19.385Z,0.20
2022-12-31T06:27:46.001Z,0.20
2022-12-31T06:30:13.274Z,0.10
2022-12-31T06:32:40.651Z,0.13
2022-12-31T06:35:08.266Z,0.20
2022-12-31T06:37:35.169Z,0.30
2022-12-31T06:40:01.877Z,0.20
2022-12-31T06:42:30.778Z,0.20
2022-12-31T06:44:58.400Z,0.25
2022-12-31T06:47:25.511Z,0.10
2022-12-31T06:49:52.557Z,0.20
2022-12-31T06:52:19.393Z,0.20
2022-12-31T06:54:46.293Z,0.20
2022-12-31T06:57:13.194Z,0.20
2022-12-31T06:59:40.095Z,0.20
2022-12-31T07:02:55.584Z,0.13
2022-12-31T07:05:34.316Z,0.30
2022-12-31T07:08:06.220Z,0.20
2022-12-31T07:11:01.987Z,0.30
2022-12-31T07:13:30.043Z,0.20
2022-12-31T07:16:23.250Z,0.20
2022-12-31T07:19:16.974Z,0.20
2022-12-31T07:21:44.053Z,0.20
2022-12-31T07:24:11.613Z,0.20
2022-12-31T07:26:59.898Z,0.30
2022-12-31T07:29:32.784Z,0.20
2022-12-31T07:32:24.166Z,0.30
2022-12-31T07:35:21.805Z,0.13
2022-12-31T07:38:07.280Z,0.20
2022-12-31T07:40:46.034Z,0.17
2022-12-31T07:43:16.063Z,0.20
2022-12-31T07:46:10.924Z,0.20
2022-12-31T07:48:37.946Z,0.10
2022-12-31T07:51:04.986Z,0.20
2022-12-31T07:53:31.940Z,0.20
2022-12-31T07:56:00.659Z,0.20
2022-12-31T07:58:36.109Z,0.10
2022-12-31T08:01:03.559Z,0.20
2022-12-31T08:04:00.004Z,0.20
2022-12-31T08:06:38.537Z,0.15
2022-12-31T08:09:13.992Z,0.20
2022-12-31T08:11:54.405Z,0.20
2022-12-31T08:14:21.352Z,0.30
2022-12-31T08:16:48.349Z,0.20
2022-12-31T08:19:30.581Z,0.30
2022-12-31T08:22:34.860Z,0.20
2022-12-31T08:25:32.593Z,0.30
2022-12-31T08:28:31.831Z,0.20
2022-12-31T08:31:03.775Z,0.10
2022-12-31T08:33:45.428Z,0.20
2022-12-31T08:36:27.972Z,0.30
2022-12-31T08:39:13.207Z,0.20
2022-12-31T08:41:49.371Z,0.10
2022-12-31T08:44:24.531Z,0.13
2022-12-31T08:47:00.573Z,0.20
2022-12-31T08:49:30.061Z,0.28
2022-12-31T08:51:57.334Z,0.20
2022-12-31T08:54:24.243Z,0.20
2022-12-31T08:57:01.645Z,0.20
2022-12-31T08:59:40.795Z,0.15
2022-12-31T09:02:07.504Z,0.20
2022-12-31T09:05:01.188Z,0.20
2022-12-31T09:07:49.040Z,0.15
2022-12-31T09:10:31.553Z,0.20
2022-12-31T09:13:27.164Z,0.20
2022-12-31T09:16:22.113Z,0.20
2022-12-31T09:18:48.835Z,0.20
2022-12-31T09:21:16.260Z,0.13
2022-12-31T09:23:43.384Z,0.32
2022-12-31T09:26:43.971Z,0.25
2022-12-31T09:29:24.173Z,0.25
2022-12-31T09:32:06.175Z,0.25
2022-12-31T09:35:09.969Z,0.40
2022-12-31T09:37:51.139Z,0.20
2022-12-31T09:40:43.775Z,0.25
2022-12-31T09:43:41.252Z,0.35
2022-12-31T09:46:44.557Z,0.47
2022-12-31T09:49:29.233Z,0.40
2022-12-31T09:52:30.805Z,0.30
2022-12-31T09:55:12.512Z,0.40
2022-12-31T09:57:53.515Z,0.40
2022-12-31T10:00:49.085Z,0.50
2022-12-31T10:03:36.422Z,0.60
2022-12-31T10:06:17.850Z,0.47
2022-12-31T10:08:44.436Z,0.35
2022-12-31T10:11:24.561Z,0.45
2022-12-31T10:14:14.467Z,0.57
2022-12-31T10:17:01.549Z,0.70
2022-12-31T10:19:55.350Z,0.73
2022-12-31T10:22:40.776Z,0.63
2022-12-31T10:25:38.851Z,0.60
2022-12-31T10:28:27.288Z,0.70
2022-12-31T10:31:02.070Z,0.70
2022-12-31T10:33:44.101Z,0.60
2022-12-31T10:36:32.037Z,0.63
2022-12-31T10:39:23.848Z,0.55
2022-12-31T10:42:28.807Z,0.80
2022-12-31T10:45:27.650Z,0.70
2022-12-31T10:48:24.668Z,0.80
2022-12-31T10:51:09.876Z,0.90
2022-12-31T10:54:10.704Z,0.77
2022-12-31T10:56:50.479Z,0.85
2022-12-31T10:59:57.657Z,0.60
2022-12-31T11:03:01.889Z,0.63
2022-12-31T11:05:37.467Z,0.65
2022-12-31T11:08:22.036Z,0.90
2022-12-31T11:11:21.989Z,0.68
2022-12-31T11:14:25.280Z,0.80
2022-12-31T11:17:15.088Z,0.70
2022-12-31T11:19:47.733Z,0.73
2022-12-31T11:22:34.022Z,0.82
2022-12-31T11:25:18.763Z,0.82
2022-12-31T11:27:54.304Z,0.90
2022-12-31T11:30:55.738Z,0.90
2022-12-31T11:33:51.057Z,0.70
2022-12-31T11:36:26.758Z,0.60
2022-12-31T11:39:27.255Z,0.85
2022-12-31T11:42:19.621Z,0.70
2022-12-31T11:45:13.681Z,0.80
2022-12-31T11:48:28.540Z,0.80
2022-12-31T11:51:11.114Z,0.73
2022-12-31T11:54:09.953Z,0.60
2022-12-31T11:57:06.831Z,1.38
2022-12-31T11:59:33.411Z,2.03
2022-12-31T12:02:03.288Z,3.25
2022-12-31T12:04:30.949Z,3.88
2022-12-31T12:06:57.789Z,3.20
2022-12-31T12:09:30.046Z,3.63
2022-12-31T12:12:03.396Z,3.47
2022-12-31T12:14:38.869Z,3.30
2022-12-31T12:17:14.754Z,3.67
2022-12-31T12:19:45.014Z,3.03
2022-12-31T12:22:14.184Z,3.40
2022-12-31T12:24:51.380Z,3.53
2022-12-31T12:27:27.841Z,2.92
2022-12-31T12:29:54.433Z,2.83
2022-12-31T12:32:24.991Z,3.17
2022-12-31T12:34:52.251Z,3.08
2022-12-31T12:37:24.657Z,2.83
2022-12-31T12:40:17.917Z,2.75
2022-12-31T12:42:50.213Z,2.67
2022-12-31T12:45:23.163Z,3.10
2022-12-31T12:47:58.769Z,2.90
2022-12-31T12:50:36.297Z,2.22
2022-12-31T12:53:16.243Z,2.45
2022-12-31T12:56:01.695Z,2.40
2022-12-31T12:59:09.887Z,2.50
2022-12-31T13:02:03.283Z,2.05
2022-12-31T13:04:52.355Z,2.00
2022-12-31T13:07:43.625Z,2.03
2022-12-31T13:10:33.922Z,1.88
2022-12-31T13:13:26.205Z,1.98
2022-12-31T13:16:12.592Z,1.95
2022-12-31T13:18:43.365Z,1.90
2022-12-31T13:21:45.607Z,1.95
2022-12-31T13:24:46.949Z,1.95
2022-12-31T13:27:35.607Z,1.90
2022-12-31T13:30:07.248Z,2.08
2022-12-31T13:32:47.236Z,2.05
2022-12-31T13:35:41.772Z,2.05
2022-12-31T13:38:30.966Z,2.00
2022-12-31T13:40:57.494Z,1.80
2022-12-31T13:43:32.863Z,2.00
2022-12-31T13:46:12.075Z,2.08
2022-12-31T13:49:34.052Z,1.60
2022-12-31T13:52:28.370Z,1.77
2022-12-31T13:55:03.701Z,1.65
2022-12-31T13:57:39.143Z,1.73
2022-12-31T14:00:31.389Z,1.60
2022-12-31T14:03:13.991Z,1.58
2022-12-31T14:06:00.896Z,1.88
2022-12-31T14:08:28.164Z,1.80
2022-12-31T14:11:04.438Z,1.58
2022-12-31T14:13:47.202Z,1.58
2022-12-31T14:16:31.879Z,1.75
2022-12-31T14:19:07.308Z,1.50
2022-12-31T14:21:58.105Z,1.60
2022-12-31T14:24:33.310Z,1.60
2022-12-31T14:27:05.386Z,1.42
2022-12-31T14:29:35.057Z,1.45
2022-12-31T14:32:33.479Z,1.50
2022-12-31T14:35:19.035Z,1.10
2022-12-31T14:38:17.091Z,1.50
2022-12-31T14:40:56.827Z,1.33
2022-12-31T14:43:35.443Z,1.40
2022-12-31T14:46:02.124Z,1.45
2022-12-31T14:48:49.226Z,1.20
2022-12-31T14:51:15.933Z,1.38
2022-12-31T14:53:53.678Z,1.42
2022-12-31T14:56:42.875Z,1.52
2022-12-31T14:59:34.413Z,1.30
2022-12-31T15:02:02.464Z,1.45
2022-12-31T15:04:47.287Z,1.30
2022-12-31T15:07:23.565Z,1.30
2022-12-31T15:09:56.577Z,1.50
2022-12-31T15:12:47.395Z,1.10
2022-12-31T15:15:29.327Z,1.10
2022-12-31T15:18:29.889Z,1.35
2022-12-31T15:21:29.754Z,1.10
2022-12-31T15:23:56.844Z,1.30
2022-12-31T15:26:26.753Z,1.13
2022-12-31T15:29:03.964Z,1.27
2022-12-31T15:31:33.098Z,1.23
2022-12-31T15:34:06.051Z,1.05
2022-12-31T15:36:38.733Z,1.20
2022-12-31T15:39:11.761Z,1.30
2022-12-31T15:42:10.193Z,1.38
2022-12-31T15:45:04.348Z,1.30
2022-12-31T15:47:35.227Z,1.30
2022-12-31T15:50:19.100Z,1.10
2022-12-31T15:52:50.621Z,1.10
2022-12-31T15:55:26.293Z,1.13
2022-12-31T15:58:04.970Z,1.25
2022-12-31T16:01:09.925Z,1.05
2022-12-31T16:03:37.212Z,1.10
2022-12-31T16:06:11.503Z,1.35
2022-12-31T16:08:39.369Z,1.20
2022-12-31T16:11:08.599Z,1.20
2022-12-31T16:13:39.655Z,1.30
2022-12-31T16:16:18.524Z,1.20
2022-12-31T16:18:45.533Z,1.40
2022-12-31T16:21:30.350Z,1.50
2022-12-31T16:23:59.359Z,1.20
2022-12-31T16:26:32.455Z,1.10
2022-12-31T16:29:00.111Z,1.35
2022-12-31T16:31:29.014Z,1.25
2022-12-31T16:34:07.717Z,1.15
2022-12-31T16:36:35.330Z,1.30
2022-12-31T16:39:24.296Z,1.33
2022-12-31T16:41:52.022Z,1.27
2022-12-31T16:44:27.325Z,1.25
2022-12-31T16:46:57.843Z,1.55
2022-12-31T16:49:25.671Z,1.20
2022-12-31T16:51:55.551Z,1.30
2022-12-31T16:54:36.447Z,1.35
2022-12-31T16:57:06.186Z,1.27
2022-12-31T16:59:45.109Z,1.20
2022-12-31T17:02:20.264Z,1.08
2022-12-31T17:04:55.995Z,1.20
2022-12-31T17:07:43.305Z,1.10
2022-12-31T17:10:09.849Z,1.10
2022-12-31T17:13:25.069Z,1.20
2022-12-31T17:15:39.888Z,1.00
2022-12-31T17:18:07.503Z,0.90
2022-12-31T17:20:34.689Z,1.00
2022-12-31T17:23:05.561Z,1.02
2022-12-31T17:25:34.480Z,0.90
2022-12-31T17:28:06.941Z,0.90
2022-12-31T17:30:34.492Z,1.05
2022-12-31T17:33:22.410Z,0.90
2022-12-31T17:36:12.177Z,1.05
2022-12-31T17:38:38.806Z,1.00
2022-12-31T17:41:16.730Z,1.00
2022-12-31T17:43:43.612Z,0.90
2022-12-31T17:46:15.909Z,1.10
2022-12-31T17:48:45.045Z,1.10
2022-12-31T17:51:12.171Z,1.10
2022-12-31T17:53:38.729Z,0.93
2022-12-31T17:56:07.501Z,1.10
2022-12-31T17:58:43.617Z,1.05
2022-12-31T18:01:13.651Z,1.00
2022-12-31T18:03:40.367Z,1.15
2022-12-31T18:06:16.116Z,0.90
2022-12-31T18:08:43.477Z,1.02
2022-12-31T18:11:20.971Z,1.10
2022-12-31T18:13:48.009Z,1.10
2022-12-31T18:16:15.115Z,1.10
2022-12-31T18:18:42.266Z,0.90
2022-12-31T18:21:19.832Z,1.17
2022-12-31T18:23:48.395Z,0.98
2022-12-31T18:26:20.420Z,0.90
2022-12-31T18:28:47.964Z,0.95
2022-12-31T18:31:23.922Z,0.95
2022-12-31T18:33:51.849Z,1.00
2022-12-31T18:36:20.299Z,0.80
2022-12-31T18:38:47.422Z,0.88
2022-12-31T18:41:17.011Z,1.00
2022-12-31T18:43:43.638Z,0.90
2022-12-31T18:46:15.605Z,0.90
2022-12-31T18:48:42.374Z,1.13
2022-12-31T18:51:14.538Z,0.80
2022-12-31T18:53:41.129Z,0.85
2022-12-31T18:56:20.122Z,1.08
2022-12-31T18:58:47.222Z,0.95
2022-12-31T19:01:42.158Z,0.70
2022-12-31T19:04:14.305Z,0.90
2022-12-31T19:06:41.561Z,0.88
2022-12-31T19:09:23.920Z,0.88
2022-12-31T19:11:55.196Z,1.02
2022-12-31T19:14:24.564Z,1.00
2022-12-31T19:16:53.111Z,0.77
2022-12-31T19:19:20.262Z,0.75
2022-12-31T19:21:47.315Z,0.85
2022-12-31T19:24:27.120Z,0.90
2022-12-31T19:26:54.466Z,0.63
2022-12-31T19:29:24.369Z,0.73
2022-12-31T19:31:51.365Z,0.68
2022-12-31T19:34:18.577Z,0.70
2022-12-31T19:36:45.293Z,0.85
2022-12-31T19:39:18.596Z,1.00
2022-12-31T19:41:46.388Z,0.70
2022-12-31T19:44:18.267Z,0.80
2022-12-31T19:46:46.145Z,0.80
2022-12-31T19:49:14.180Z,0.95
2022-12-31T19:51:41.312Z,0.80
2022-12-31T19:54:08.293Z,0.70
2022-12-31T19:56:35.049Z,0.90
2022-12-31T19:59:09.970Z,0.80
2022-12-31T20:01:36.806Z,0.70
2022-12-31T20:04:03.942Z,0.90
2022-12-31T20:06:30.544Z,0.75
2022-12-31T20:08:57.209Z,0.70
2022-12-31T20:11:24.394Z,0.60
2022-12-31T20:13:52.741Z,0.80
2022-12-31T20:16:22.711Z,1.05
2022-12-31T20:18:50.441Z,0.95
2022-12-31T20:21:22.971Z,0.80
2022-12-31T20:23:51.070Z,0.60
2022-12-31T20:26:18.782Z,0.88
2022-12-31T20:28:45.461Z,0.70
2022-12-31T20:31:15.478Z,0.68
2022-12-31T20:33:42.643Z,0.65
2022-12-31T20:36:13.313Z,0.70
2022-12-31T20:38:40.464Z,0.85
2022-12-31T20:41:09.530Z,0.80
2022-12-31T20:43:37.310Z,0.60
2022-12-31T20:46:14.357Z,0.80
2022-12-31T20:48:42.205Z,0.80
2022-12-31T20:51:08.857Z,0.70
2022-12-31T20:53:35.580Z,0.60
2022-12-31T20:56:06.191Z,0.80
2022-12-31T20:58:32.839Z,0.70
2022-12-31T21:01:00.448Z,0.68
2022-12-31T21:06:14.484Z,0.68
2022-12-31T21:08:41.312Z,0.70
2022-12-31T21:11:27.118Z,0.75
2022-12-31T21:13:55.050Z,0.80
2022-12-31T21:16:22.445Z,0.57
2022-12-31T21:18:49.037Z,0.60
2022-12-31T21:21:15.841Z,0.80
2022-12-31T21:23:42.566Z,0.60
2022-12-31T21:26:09.124Z,0.60
2022-12-31T21:28:35.873Z,0.50
2022-12-31T21:31:05.246Z,0.90
2022-12-31T21:33:32.068Z,0.80
2022-12-31T21:36:04.224Z,0.80
2022-12-31T21:38:31.257Z,0.52
2022-12-31T21:41:06.058Z,0.68
2022-12-31T21:43:32.742Z,0.95
2022-12-31T21:46:04.124Z,0.90
2022-12-31T21:48:31.119Z,0.75
2022-12-31T21:51:14.563Z,0.73
2022-12-31T21:53:41.224Z,0.70
2022-12-31T21:56:09.668Z,0.70
2022-12-31T21:58:41.321Z,0.80
2022-12-31T22:01:29.231Z,0.70
2022-12-31T22:03:55.884Z,1.00
2022-12-31T22:06:23.826Z,0.73
2022-12-31T22:08:55.334Z,0.90
2022-12-31T22:11:24.972Z,0.90
2022-12-31T22:13:52.740Z,0.82
2022-12-31T22:16:20.377Z,0.80
2022-12-31T22:18:47.333Z,0.80
2022-12-31T22:21:19.479Z,0.65
2022-12-31T22:23:55.193Z,0.65
2022-12-31T22:26:24.144Z,0.63
2022-12-31T22:28:51.095Z,0.68
2022-12-31T22:31:20.663Z,0.68
2022-12-31T22:33:47.505Z,0.60
2022-12-31T22:36:19.646Z,0.68
2022-12-31T22:38:46.387Z,0.73
2022-12-31T22:41:15.479Z,0.63
2022-12-31T22:43:44.541Z,0.70
2022-12-31T22:46:17.192Z,0.80
2022-12-31T22:48:43.876Z,0.63
2022-12-31T22:51:11.615Z,0.77
2022-12-31T22:53:39.909Z,0.70
2022-12-31T22:56:07.577Z,0.80
2022-12-31T22:58:34.668Z,0.73
2022-12-31T23:01:05.034Z,0.70
2022-12-31T23:03:31.785Z,0.70
2022-12-31T23:05:58.513Z,0.88
2022-12-31T23:08:25.137Z,0.70
2022-12-31T23:11:05.664Z,0.70
2022-12-31T23:13:59.024Z,0.90
2022-12-31T23:16:46.500Z,0.90
2022-12-31T23:19:32.878Z,0.90
2022-12-31T23:22:18.228Z,0.90
2022-12-31T23:24:44.875Z,1.00
2022-12-31T23:27:12.232Z,1.30
2022-12-31T23:29:46.248Z,1.17
2022-12-31T23:32:15.872Z,1.10
2022-12-31T23:34:44.416Z,1.10
2022-12-31T23:37:12.132Z,1.10
2022-12-31T23:39:39.228Z,1.20
2022-12-31T23:42:05.937Z,1.15
2022-12-31T23:44:32.936Z,1.08
2022-12-31T23:46:59.615Z,1.20
2022-12-31T23:49:26.333Z,1.10
2022-12-31T23:51:52.975Z,1.17
2022-12-31T23:54:19.659Z,1.10
2022-12-31T23:56:46.283Z,1.40
2022-12-31T23:59:13.257Z,1.40
